Create Custom Reports and Graphics: Custom Report

Modesto Jr College

Current Conditions

12/11/19 4:15 PM (-08:00)
Updated Every 15 Minutes
Temp 53.0 °F   0.5
RH 86 %   6
Dew Pt 49.1 °F   2.5
Wind Spd 6.2 mph
Wind Dir SE | 139 °
Wind Gust 10.5 mph   3.5
Latest Rain 0.00 In
Daily Rain 0.01 In
Daily Min Temp 47.9 °F   8.4
Daily Max Temp 54.9 °F   1.6

Last 24 Hours

Modesto Jr College

15 Minute Data | America/Los_Angeles
as of 12/11/19 4:25 PM PST
Date & Time Temp (°F) RH (%) Dew Pt (°F) Wind Spd (mph) Wind Dir (°) Wind Gust (mph) Latest Rain (In) Daily Rain (In) Daily Min Temp (°F) Daily Max Temp (°F)
12/11/19 - 1615 53.0 86 49.1 6.2 SE | 139 10.5 0.00 0.01 47.9 54.9
12/11/19 - 1600 53.1 87 49.2 5.2 SE | 138 11.4 0.00 0.01 47.9 54.9
12/11/19 - 1545 53.2 86 49.3 6.8 SSE | 150 11.6 0.00 0.01 47.9 54.9
12/11/19 - 1530 53.4 86 49.4 5.9 SSE | 147 11.2 0.00 0.01 47.9 54.9
12/11/19 - 1515 53.3 86 49.2 6.6 SE | 142 13.4 0.00 0.01 47.9 54.9
12/11/19 - 1500 53.5 85 49.2 6.6 SE | 139 12.3 0.00 0.01 47.9 54.9
12/11/19 - 1445 53.7 85 49.3 6.5 SSE | 148 10.7 0.00 0.01 47.9 54.9
12/11/19 - 1430 54.0 84 49.1 6.5 SE | 133 12.7 0.00 0.01 47.9 54.9
12/11/19 - 1415 54.0 83 48.9 5.9 SE | 140 11.8 0.00 0.01 47.9 54.9
12/11/19 - 1400 54.3 82 49.0 5.5 SE | 141 11.0 0.00 0.01 47.9 54.9
12/11/19 - 1345 54.4 82 48.9 7.3 SE | 137 13.8 0.00 0.01 47.9 54.9
12/11/19 - 1330 54.1 81 48.6 6.6 SE | 141 10.3 0.00 0.01 47.9 54.9
12/11/19 - 1315 54.4 81 48.8 6.7 SE | 132 12.1 0.00 0.01 47.9 54.9
12/11/19 - 1300 54.5 82 49.2 5.9 SE | 141 12.1 0.00 0.01 47.9 54.9
12/11/19 - 1245 54.1 84 49.2 4.3 SE | 132 8.8 0.00 0.01 47.9 54.4
12/11/19 - 1230 53.6 84 48.8 5.9 SE | 133 9.6 0.00 0.01 47.9 53.8
12/11/19 - 1215 53.3 84 48.8 5.1 SE | 142 8.8 0.00 0.01 47.9 53.6
12/11/19 - 1200 53.2 85 48.8 4.6 SE | 130 8.8 0.00 0.01 47.9 53.5
12/11/19 - 1145 52.7 86 48.8 4.2 SE | 132 8.1 0.00 0.01 47.9 53.2
12/11/19 - 1130 52.4 87 48.5 4.8 SE | 145 8.8 0.00 0.01 47.9 52.7
12/11/19 - 1115 52.0 88 48.5 5.4 SSE | 148 9.4 0.00 0.01 47.9 52.4
12/11/19 - 1100 51.5 89 48.4 5.7 SSE | 151 10.3 0.00 0.01 47.9 52.0
12/11/19 - 1045 51.1 90 48.4 5.6 SE | 138 8.8 0.00 0.01 47.9 51.5
12/11/19 - 1030 50.9 91 48.4 5.5 SSE | 152 9.6 0.00 0.01 47.9 51.3
12/11/19 - 1015 50.9 91 48.4 4.6 SSE | 152 7.0 0.00 0.01 47.9 51.3
12/11/19 - 1000 50.8 91 48.3 4.7 SE | 141 8.3 0.00 0.01 47.9 51.3
12/11/19 - 0945 50.6 92 48.4 4.9 SSE | 155 9.2 0.00 0.01 47.9 51.3
12/11/19 - 0930 50.8 92 48.7 5.2 SSE | 159 7.9 0.00 0.01 47.9 51.3
12/11/19 - 0915 50.2 94 48.7 5.7 SSE | 150 10.3 0.00 0.01 47.9 51.3
12/11/19 - 0900 49.5 95 48.1 5.9 SSE | 157 9.6 0.00 0.01 47.9 50.6
12/11/19 - 0845 49.5 95 48.2 5.3 SSE | 158 9.2 0.00 0.01 47.9 50.6
12/11/19 - 0830 49.5 96 48.4 4.5 SSE | 149 9.4 0.00 0.01 47.9 50.6
12/11/19 - 0815 49.1 96 48.1 4.2 SSE | 150 8.6 0.00 0.01 47.9 50.6
12/11/19 - 0800 48.8 96 47.9 3.1 SE | 141 7.7 0.00 0.01 47.9 50.6
12/11/19 - 0745 48.5 96 47.5 4.7 SE | 139 7.7 0.00 0.01 47.9 50.6
12/11/19 - 0730 48.3 96 47.3 4.2 SE | 130 8.6 0.00 0.01 47.9 50.6
12/11/19 - 0715 48.1 96 47.0 5.4 ESE | 106 9.6 0.00 0.01 47.9 50.6
12/11/19 - 0700 48.1 96 47.0 6.0 E | 100 11.2 0.00 0.01 47.9 50.6
12/11/19 - 0645 48.2 96 47.1 6.1 E | 100 10.1 0.00 0.01 48.0 50.6
12/11/19 - 0630 48.4 96 47.2 5.4 E | 97 9.9 0.01 0.01 48.2 50.6
12/11/19 - 0615 48.4 95 47.1 3.8 ESE | 106 6.8 0.00 0.00 48.2 50.6
12/11/19 - 0600 48.4 95 47.1 4.2 E | 96 6.8 0.00 0.00 48.2 50.6
12/11/19 - 0545 48.7 94 47.2 4.9 E | 95 9.6 0.00 0.00 48.4 50.6
12/11/19 - 0530 49.2 94 47.7 4.5 ESE | 110 9.2 0.00 0.00 49.0 50.6
12/11/19 - 0515 49.4 95 48.0 5.2 ESE | 112 9.2 0.00 0.00 49.2 50.6
12/11/19 - 0500 49.5 95 48.1 5.7 SE | 124 9.2 0.00 0.00 49.2 50.6
12/11/19 - 0445 49.4 95 48.0 4.8 ESE | 120 11.0 0.00 0.00 49.2 50.6
12/11/19 - 0430 49.5 95 48.0 3.9 SE | 128 7.2 0.00 0.00 49.2 50.6
12/11/19 - 0415 49.5 95 48.0 3.6 ESE | 114 7.2 0.00 0.00 49.3 50.6
12/11/19 - 0400 49.5 94 48.0 3.8 SE | 127 8.1 0.00 0.00 49.3 50.6
12/11/19 - 0345 49.7 94 48.1 4.8 SE | 143 8.6 0.00 0.00 49.4 50.6
12/11/19 - 0330 49.8 94 48.3 5.2 SE | 136 8.3 0.00 0.00 49.6 50.6
12/11/19 - 0315 49.9 95 48.4 4.7 SE | 142 9.2 0.00 0.00 49.6 50.6
12/11/19 - 0300 50.0 95 48.5 4.0 SSE | 156 7.2 0.00 0.00 49.6 50.6
12/11/19 - 0245 49.9 95 48.5 3.7 SE | 130 7.2 0.00 0.00 49.6 50.6
12/11/19 - 0230 49.8 95 48.4 3.9 ESE | 108 7.0 0.00 0.00 49.6 50.6
12/11/19 - 0215 49.8 95 48.4 3.3 SE | 143 6.1 0.00 0.00 49.6 50.6
12/11/19 - 0200 49.8 95 48.3 2.3 S | 174 4.4 0.00 0.00 49.6 50.6
12/11/19 - 0145 49.7 95 48.3 2.0 SSW | 198 3.9 0.00 0.00 49.6 50.6
12/11/19 - 0130 49.8 94 48.3 2.3 S | 179 5.7 0.00 0.00 49.6 50.6
12/11/19 - 0115 49.9 94 48.3 3.1 S | 187 5.5 0.00 0.00 49.6 50.6
12/11/19 - 0100 50.0 94 48.3 2.0 SSW | 197 3.7 0.00 0.00 49.7 50.6
12/11/19 - 0045 50.1 94 48.4 2.2 SSW | 195 3.7 0.00 0.00 49.9 50.6
12/11/19 - 0030 50.3 93 48.4 2.1 S | 188 3.9 0.00 0.00 49.9 50.6
12/11/19 - 0015 50.4 93 48.5 1.2 SE | 140 3.5 0.00 0.00 50.2 50.6
12/11/19 - 0000 50.4 93 48.5 2.6 E | 97 6.4 0.00 0.01 39.5 56.5
12/10/19 - 2345 50.4 93 48.4 5.4 ESE | 108 9.9 0.00 0.01 39.5 56.5
12/10/19 - 2330 50.4 92 48.3 4.7 ESE | 110 8.6 0.00 0.01 39.5 56.5
12/10/19 - 2315 50.4 92 48.1 4.8 ESE | 102 8.3 0.00 0.01 39.5 56.5
12/10/19 - 2300 50.4 91 47.8 2.2 ENE | 75 4.4 0.00 0.01 39.5 56.5
12/10/19 - 2245 50.5 91 47.9 1.0 E | 99 3.3 0.00 0.01 39.5 56.5
12/10/19 - 2230 50.2 91 47.8 5.5 E | 101 13.2 0.00 0.01 39.5 56.5
12/10/19 - 2215 50.0 92 47.8 5.1 ENE | 76 10.7 0.00 0.01 39.5 56.5
12/10/19 - 2200 49.7 92 47.5 1.2 E | 90 3.3 0.00 0.01 39.5 56.5
12/10/19 - 2145 49.5 92 47.3 0.6 SSE | 154 1.3 0.00 0.01 39.5 56.5
12/10/19 - 2130 49.1 91 46.6 1.2 SE | 129 2.4 0.00 0.01 39.5 56.5
12/10/19 - 2115 49.7 91 47.0 1.4 W | 276 2.4 0.00 0.01 39.5 56.5
12/10/19 - 2100 50.0 91 47.6 3.2 NE | 35 5.9 0.00 0.01 39.5 56.5
12/10/19 - 2045 49.1 94 47.3 3.4 E | 80 6.4 0.00 0.01 39.5 56.5
12/10/19 - 2030 47.9 92 45.8 1.3 N | 10 3.3 0.00 0.01 39.5 56.5
12/10/19 - 2015 47.8 91 45.4 0.8 NNE | 25 1.8 0.00 0.01 39.5 56.5
12/10/19 - 2000 48.1 90 45.3 0.5 NW | 322 1.3 0.00 0.01 39.5 56.5
12/10/19 - 1945 48.8 87 45.1 1.1 W | 277 2.6 0.00 0.01 39.5 56.5
12/10/19 - 1930 50.3 87 46.5 1.5 SSW | 204 3.9 0.00 0.01 39.5 56.5
12/10/19 - 1915 50.4 87 46.7 2.2 SE | 125 3.7 0.00 0.01 39.5 56.5
12/10/19 - 1900 50.4 87 46.7 2.8 ESE | 115 4.8 0.00 0.01 39.5 56.5
12/10/19 - 1845 50.5 87 46.6 2.8 ESE | 112 4.8 0.00 0.01 39.5 56.5
12/10/19 - 1830 50.4 86 46.5 2.0 E | 93 4.4 0.00 0.01 39.5 56.5
12/10/19 - 1815 50.7 85 46.3 2.7 E | 96 4.8 0.00 0.01 39.5 56.5
12/10/19 - 1800 51.2 83 46.4 1.9 SE | 130 4.4 0.00 0.01 39.5 56.5
12/10/19 - 1745 51.8 82 46.5 1.3 SE | 141 3.1 0.00 0.01 39.5 56.5
12/10/19 - 1730 52.2 82 46.8 1.7 SSE | 153 3.1 0.00 0.01 39.5 56.5
12/10/19 - 1715 52.2 81 46.5 0.4 SSE | 158 1.8 0.00 0.01 39.5 56.5
12/10/19 - 1700 52.2 80 46.4 2.2 E | 87 4.4 0.00 0.01 39.5 56.5
12/10/19 - 1645 52.7 79 46.4 2.7 E | 93 5.5 0.00 0.01 39.5 56.5
12/10/19 - 1630 52.7 79 46.4 4.6 ESE | 114 7.5 0.00 0.01 39.5 56.5
12/10/19 - 1615 52.6 80 46.6 3.6 ESE | 120 7.0 0.00 0.01 39.5 56.5
Max 54.5 96 49.4 7.3 - 13.8 0.01 0.01 50.2 56.5
Avg 50.7 90 47.9 4.0 - 7.5 0.00 - - -
Min 47.8 79 45.1 0.4 - 1.3 0.00 0.00 39.5 50.6
Total - - - - - - 0.01 - - -

Last 7 Days

Modesto Jr College

Daily Data | America/Los_Angeles
as of 12/11/19 4:25 PM PST
Date Daily ETo (in)
12/10/19 0.02
12/9/19 0.04
12/8/19 0.02
12/7/19 0.06
12/6/19 0.08
12/5/19 0.03
12/4/19 0.02
Max 0.08
Min 0.02